Time;durP1;ratioP1;P1;durP2;ratioP2;P2;SDS_P1;SDS_P2;PMS_P1;PMS_P2;Temp;Humidity;BMP_temperature;BMP_pressure;BME280_temperature;BME280_humidity;BME280_pressure;Samples;Min_cycle;Max_cycle;Signal;HPM_P1;HPM_P2
2022/09/22 00:01:09;;;;;;;2.88;1.77;;;;;;;9.02;100.00;100450.25;7389358;19;20046;-82
2022/09/22 00:03:40;;;;;;;2.75;1.42;;;;;;;8.79;100.00;100452.69;7392310;19;20018;-81
2022/09/22 00:06:09;;;;;;;1.27;1.05;;;;;;;8.83;100.00;100447.78;7396735;19;20014;-81
2022/09/22 00:08:38;;;;;;;2.90;1.67;;;;;;;8.74;100.00;100445.69;7392421;19;20024;-80
2022/09/22 00:11:07;;;;;;;12.90;1.20;;;;;;;9.71;100.00;100450.09;7391826;19;20019;-81
2022/09/22 00:13:35;;;;;;;0.68;0.65;;;;;;;10.78;100.00;100441.84;7389941;19;20047;-81
2022/09/22 00:16:02;;;;;;;3.85;1.67;;;;;;;9.79;100.00;100440.25;7395611;19;20028;-81
2022/09/22 00:18:28;;;;;;;1.27;1.00;;;;;;;9.99;100.00;100435.09;7389943;19;20499;-81
2022/09/22 00:20:55;;;;;;;1.70;1.33;;;;;;;8.52;100.00;100433.75;7389622;19;20547;-81
2022/09/22 00:23:25;;;;;;;1.95;1.42;;;;;;;8.33;100.00;100443.09;7391383;19;20545;-81
2022/09/22 00:25:52;;;;;;;4.45;1.60;;;;;;;7.97;100.00;100434.34;7394828;19;20014;-80
2022/09/22 00:28:20;;;;;;;1.27;1.27;;;;;;;7.70;100.00;100442.28;7393270;19;20010;-81
2022/09/22 00:30:46;;;;;;;0.80;0.80;;;;;;;7.67;100.00;100445.97;7387787;19;20014;-81
2022/09/22 00:33:13;;;;;;;0.98;0.98;;;;;;;7.81;100.00;100440.75;7389879;19;20023;-81
2022/09/22 00:35:39;;;;;;;1.85;1.75;;;;;;;8.47;100.00;100436.31;7394758;19;20049;-80
2022/09/22 00:38:06;;;;;;;4.03;1.35;;;;;;;9.50;100.00;100434.25;7390376;19;20010;-80
2022/09/22 00:40:34;;;;;;;0.98;0.98;;;;;;;9.29;100.00;100423.91;7389496;19;20015;-80
2022/09/22 00:43:24;;;;;;;5.25;1.75;;;;;;;10.47;100.00;100409.31;7387558;19;20098;-80
2022/09/22 00:46:13;;;;;;;1.98;1.13;;;;;;;9.94;100.00;100413.44;7392239;19;20015;-81
2022/09/22 00:48:45;;;;;;;6.00;1.60;;;;;;;7.96;100.00;100424.44;7384759;19;20035;-80
2022/09/22 00:51:15;;;;;;;4.47;1.83;;;;;;;7.82;100.00;100419.34;7388781;19;20086;-81
2022/09/22 00:53:42;;;;;;;2.20;1.40;;;;;;;7.48;100.00;100420.75;7388745;19;20035;-79
2022/09/22 00:56:14;;;;;;;1.83;1.67;;;;;;;7.64;100.00;100420.66;7394255;19;20022;-80
2022/09/22 00:58:51;;;;;;;5.75;2.00;;;;;;;8.25;100.00;100416.78;7387929;19;20019;-79
2022/09/22 01:01:18;;;;;;;1.13;0.77;;;;;;;8.55;100.00;100410.66;7387317;19;20116;-79
2022/09/22 01:03:45;;;;;;;1.23;1.15;;;;;;;8.76;100.00;100392.47;7389131;19;20085;-79
2022/09/22 01:06:16;;;;;;;1.45;1.38;;;;;;;8.02;100.00;100394.94;7392531;19;20022;-81
2022/09/22 01:08:43;;;;;;;2.08;1.15;;;;;;;8.10;100.00;100397.03;7389834;19;20025;-80
2022/09/22 01:11:12;;;;;;;4.30;1.70;;;;;;;8.58;100.00;100393.06;7387970;19;20029;-81
2022/09/22 01:13:38;;;;;;;1.23;1.02;;;;;;;8.41;100.00;100391.69;7388909;19;20017;-80
2022/09/22 01:16:29;;;;;;;5.78;1.13;;;;;;;7.77;100.00;100389.41;7392306;19;20010;-80
2022/09/22 01:19:10;;;;;;;1.20;0.63;;;;;;;7.75;100.00;100391.84;7388661;19;20041;-79
2022/09/22 01:21:41;;;;;;;0.93;0.93;;;;;;;7.19;100.00;100395.06;7388624;19;20326;-79
2022/09/22 01:24:34;;;;;;;3.30;1.73;;;;;;;7.21;100.00;100402.97;7387816;19;20358;-79
2022/09/22 01:27:13;;;;;;;0.40;0.38;;;;;;;7.30;100.00;100395.53;7388306;19;20026;-79
2022/09/22 01:29:48;;;;;;;2.70;0.75;;;;;;;7.41;100.00;100390.47;7386232;19;20385;-79
2022/09/22 01:32:21;;;;;;;5.03;1.20;;;;;;;7.10;100.00;100391.41;7389643;19;20570;-80
2022/09/22 01:35:17;;;;;;;3.70;1.42;;;;;;;7.48;100.00;100381.94;7390843;19;20508;-79
2022/09/22 01:38:02;;;;;;;2.78;1.23;;;;;;;7.79;100.00;100376.66;7386601;19;20015;-79
2022/09/22 01:40:41;;;;;;;1.83;1.20;;;;;;;7.64;100.00;100367.97;7386979;19;20015;-79
2022/09/22 01:43:29;;;;;;;6.97;1.15;;;;;;;8.44;100.00;100356.72;7387070;19;20037;-79
2022/09/22 01:45:58;;;;;;;1.27;0.98;;;;;;;7.15;100.00;100377.00;7389976;19;20026;-80
2022/09/22 01:48:28;;;;;;;2.22;1.15;;;;;;;7.23;100.00;100373.59;7388438;19;20041;-80
2022/09/22 01:51:09;;;;;;;1.42;1.33;;;;;;;7.80;100.00;100360.78;7386364;19;20023;-80
2022/09/22 01:53:44;;;;;;;1.35;0.98;;;;;;;8.27;100.00;100361.66;7388160;19;20126;-80
2022/09/22 01:56:13;;;;;;;2.45;1.08;;;;;;;9.03;100.00;100356.59;7392554;19;20019;-79
2022/09/22 01:58:46;;;;;;;4.28;1.65;;;;;;;8.12;100.00;100355.00;7386281;19;20044;-79
2022/09/22 02:01:17;;;;;;;1.05;0.90;;;;;;;8.73;100.00;100352.50;7385213;19;20044;-79
2022/09/22 02:04:01;;;;;;;1.98;1.40;;;;;;;10.12;100.00;100346.75;7386418;19;20022;-79
2022/09/22 02:06:36;;;;;;;2.25;1.25;;;;;;;9.43;100.00;100337.19;7387588;19;20408;-80
2022/09/22 02:09:06;;;;;;;7.00;1.45;;;;;;;9.49;100.00;100329.81;7387894;19;20018;-79
2022/09/22 02:11:32;;;;;;;5.20;2.10;;;;;;;10.09;100.00;100330.94;7387276;19;20029;-80
2022/09/22 02:14:01;;;;;;;12.73;1.80;;;;;;;9.10;100.00;100320.97;7385937;19;20029;-80
2022/09/22 02:16:27;;;;;;;1.52;1.42;;;;;;;10.76;100.00;100311.38;7385881;19;20421;-80
2022/09/22 02:19:15;;;;;;;3.42;1.42;;;;;;;10.38;100.00;100316.63;7386761;19;20046;-80
2022/09/22 02:21:44;;;;;;;3.13;1.05;;;;;;;8.43;100.00;100314.31;7385645;19;20373;-80
2022/09/22 02:24:32;;;;;;;1.00;0.73;;;;;;;10.19;100.00;100318.63;7386374;19;20045;-80
2022/09/22 02:27:02;;;;;;;1.60;1.25;;;;;;;10.90;100.00;100315.53;7388429;19;20094;-78
2022/09/22 02:29:31;;;;;;;1.77;1.13;;;;;;;10.66;100.00;100307.03;7384367;19;20021;-78
2022/09/22 02:32:01;;;;;;;0.73;0.73;;;;;;;11.04;100.00;100298.19;7385797;19;20025;-79
2022/09/22 02:34:27;;;;;;;1.55;1.30;;;;;;;11.46;100.00;100301.00;7386366;19;20014;-79
2022/09/22 02:37:06;;;;;;;1.20;1.15;;;;;;;11.75;100.00;100293.63;7386766;19;20499;-75
2022/09/22 02:39:42;;;;;;;2.10;2.00;;;;;;;12.00;100.00;100290.34;7387374;19;20022;-76
2022/09/22 02:42:26;;;;;;;5.32;1.48;;;;;;;8.83;100.00;100295.81;7386015;19;20026;-76
2022/09/22 02:45:07;;;;;;;0.60;0.60;;;;;;;8.56;100.00;100295.59;7386272;19;20021;-76
2022/09/22 02:47:40;;;;;;;3.30;1.00;;;;;;;10.70;100.00;100290.19;7385402;19;20034;-76
2022/09/22 02:50:10;;;;;;;2.03;1.27;;;;;;;11.45;100.00;100272.34;7385415;19;20014;-76
2022/09/22 02:52:38;;;;;;;2.92;1.38;;;;;;;9.33;100.00;100286.38;7384667;19;20015;-76
2022/09/22 02:55:06;;;;;;;1.40;1.30;;;;;;;10.29;100.00;100277.66;7389180;19;20018;-76
2022/09/22 02:57:32;;;;;;;3.05;1.52;;;;;;;9.56;100.00;100287.84;7386300;19;20030;-76
2022/09/22 02:59:58;;;;;;;1.30;1.20;;;;;;;8.56;100.00;100292.03;7383867;19;20023;-77
2022/09/22 03:02:24;;;;;;;1.30;1.27;;;;;;;8.14;100.00;100288.75;7384547;19;20039;-76
2022/09/22 03:04:50;;;;;;;5.05;1.13;;;;;;;9.21;100.00;100278.09;7383765;19;20477;-76
2022/09/22 03:07:18;;;;;;;1.23;0.75;;;;;;;8.01;100.00;100285.22;7385142;19;20436;-76
2022/09/22 03:09:44;;;;;;;1.45;1.23;;;;;;;9.40;100.00;100279.75;7390354;19;20356;-76
2022/09/22 03:12:10;;;;;;;2.05;0.85;;;;;;;10.57;100.00;100282.75;7384547;19;20045;-76
2022/09/22 03:14:36;;;;;;;1.80;1.70;;;;;;;10.34;100.00;100286.16;7387303;19;20023;-76
2022/09/22 03:17:02;;;;;;;7.28;1.45;;;;;;;12.56;100.00;100275.50;7383494;19;20477;-76
2022/09/22 03:19:28;;;;;;;15.77;2.60;;;;;;;10.49;100.00;100275.97;7382274;19;20487;-77
2022/09/22 03:21:54;;;;;;;1.35;1.13;;;;;;;11.26;100.00;100273.66;7382776;19;20029;-76
2022/09/22 03:24:20;;;;;;;3.85;1.05;;;;;;;12.34;100.00;100271.53;7385772;19;20019;-76
2022/09/22 03:26:46;;;;;;;1.17;1.08;;;;;;;10.43;100.00;100275.03;7386050;19;20115;-76
2022/09/22 03:29:13;;;;;;;1.20;1.10;;;;;;;11.96;100.00;100267.44;7382978;19;20426;-76
2022/09/22 03:31:39;;;;;;;3.22;1.02;;;;;;;11.22;100.00;100264.66;7384834;19;20018;-77
2022/09/22 03:34:05;;;;;;;3.00;1.70;;;;;;;12.61;100.00;100265.69;7385514;19;20039;-77
2022/09/22 03:36:31;;;;;;;1.58;0.98;;;;;;;11.82;100.00;100270.16;7385220;19;20018;-76
2022/09/22 03:38:58;;;;;;;4.85;1.50;;;;;;;10.52;100.00;100268.69;7384660;19;20018;-77
2022/09/22 03:41:25;;;;;;;2.72;0.93;;;;;;;8.60;100.00;100262.19;7384101;19;20011;-77
2022/09/22 03:43:52;;;;;;;1.23;1.13;;;;;;;7.86;100.00;100264.75;7385576;19;20477;-77
2022/09/22 03:46:18;;;;;;;0.63;0.63;;;;;;;7.59;100.00;100257.69;7389261;19;20020;-77
2022/09/22 03:48:44;;;;;;;5.10;1.23;;;;;;;7.34;100.00;100252.16;7385027;19;20024;-77
2022/09/22 03:51:10;;;;;;;1.95;1.08;;;;;;;7.85;100.00;100258.41;7383737;19;20509;-77
2022/09/22 03:53:37;;;;;;;2.92;1.30;;;;;;;8.11;100.00;100242.47;7384481;19;20022;-77
2022/09/22 03:56:05;;;;;;;0.93;0.77;;;;;;;8.31;100.00;100243.00;7387243;19;20022;-76
2022/09/22 03:58:32;;;;;;;4.22;1.23;;;;;;;7.51;100.00;100245.25;7383977;19;20418;-77
2022/09/22 04:00:58;;;;;;;1.02;0.93;;;;;;;7.25;100.00;100245.75;7383621;19;20557;-77
2022/09/22 04:03:24;;;;;;;1.38;0.75;;;;;;;7.66;100.00;100234.50;7385257;19;20030;-77
2022/09/22 04:05:50;;;;;;;0.70;0.60;;;;;;;9.03;100.00;100217.69;7388022;19;20107;-77
2022/09/22 04:08:17;;;;;;;2.28;1.23;;;;;;;7.52;100.00;100218.34;7383707;19;20094;-77
2022/09/22 04:10:44;;;;;;;4.40;1.13;;;;;;;7.30;100.00;100223.00;7382906;19;20039;-77
2022/09/22 04:13:11;;;;;;;0.98;0.82;;;;;;;7.78;100.00;100219.06;7383047;19;20014;-77
2022/09/22 04:15:38;;;;;;;4.15;1.45;;;;;;;7.68;100.00;100220.97;7389664;19;20014;-77
2022/09/22 04:18:04;;;;;;;0.85;0.73;;;;;;;8.56;100.00;100217.09;7388153;19;20473;-77
2022/09/22 04:20:30;;;;;;;4.32;0.90;;;;;;;8.77;100.00;100217.06;7390358;19;20093;-77
2022/09/22 04:22:57;;;;;;;1.05;0.93;;;;;;;7.90;100.00;100227.34;7389336;19;20459;-77
2022/09/22 04:25:23;;;;;;;12.38;2.20;;;;;;;7.97;100.00;100226.34;7392695;19;20018;-77
2022/09/22 04:27:49;;;;;;;3.10;1.15;;;;;;;9.79;100.00;100223.31;7393591;19;20334;-76
2022/09/22 04:30:15;;;;;;;5.35;1.27;;;;;;;10.47;100.00;100203.25;7386780;19;20022;-77
2022/09/22 04:32:41;;;;;;;2.05;1.27;;;;;;;11.59;100.00;100206.72;7390930;19;20038;-77
2022/09/22 04:35:08;;;;;;;3.92;0.82;;;;;;;10.58;100.00;100217.47;7391677;19;20042;-77
2022/09/22 04:37:34;;;;;;;0.77;0.77;;;;;;;9.76;100.00;100213.13;7387659;19;20047;-77
2022/09/22 04:40:00;;;;;;;2.63;1.30;;;;;;;11.28;100.00;100209.84;7388360;19;20046;-77
2022/09/22 04:42:26;;;;;;;3.10;1.67;;;;;;;11.76;100.00;100208.66;7386787;19;20039;-77
2022/09/22 04:44:55;;;;;;;1.40;1.30;;;;;;;12.09;100.00;100214.94;7389792;19;20086;-77
2022/09/22 04:47:22;;;;;;;1.17;0.68;;;;;;;14.52;100.00;100211.56;7388792;19;20377;-77
2022/09/22 04:49:48;;;;;;;5.43;1.13;;;;;;;14.34;100.00;100214.69;7388964;19;20014;-77
2022/09/22 04:52:14;;;;;;;4.05;1.33;;;;;;;12.19;100.00;100219.19;7390827;19;20018;-77
2022/09/22 04:54:40;;;;;;;1.70;0.80;;;;;;;11.35;100.00;100220.63;7388876;19;20033;-77
2022/09/22 04:57:07;;;;;;;2.58;1.63;;;;;;;13.49;100.00;100222.47;7387511;19;20029;-77
2022/09/22 04:59:34;;;;;;;3.67;1.60;;;;;;;13.96;100.00;100226.16;7389107;19;20044;-77
2022/09/22 05:02:00;;;;;;;3.63;1.48;;;;;;;14.05;100.00;100214.84;7389475;19;20029;-77
2022/09/22 05:04:26;;;;;;;6.88;1.02;;;;;;;14.04;100.00;100218.88;7391775;19;20024;-76
2022/09/22 05:06:52;;;;;;;2.17;1.10;;;;;;;10.72;100.00;100226.44;7388513;19;20038;-77
2022/09/22 05:09:19;;;;;;;1.10;0.85;;;;;;;12.16;100.00;100219.38;7392374;19;20551;-77
2022/09/22 05:11:47;;;;;;;2.40;1.75;;;;;;;12.92;100.00;100212.91;7389798;19;20113;-77
2022/09/22 05:14:14;;;;;;;0.82;0.82;;;;;;;13.30;100.00;100209.97;7388334;19;20014;-77
2022/09/22 05:16:41;;;;;;;2.67;1.40;;;;;;;9.83;100.00;100212.81;7388899;19;20021;-77
2022/09/22 05:19:09;;;;;;;2.60;1.20;;;;;;;9.99;100.00;100212.53;7387285;19;20034;-77
2022/09/22 05:21:36;;;;;;;1.85;1.52;;;;;;;12.66;100.00;100192.38;7388797;19;20022;-77
2022/09/22 05:24:03;;;;;;;2.03;1.17;;;;;;;9.90;100.00;100206.94;7388792;19;20111;-77
2022/09/22 05:26:29;;;;;;;2.95;0.98;;;;;;;9.12;100.00;100210.16;7389012;19;20023;-77
2022/09/22 05:28:58;;;;;;;2.78;1.40;;;;;;;8.56;100.00;100206.78;7388473;19;20514;-77
2022/09/22 05:31:25;;;;;;;2.25;1.23;;;;;;;13.09;100.00;100180.41;7387576;19;20029;-77
2022/09/22 05:33:51;;;;;;;2.30;0.90;;;;;;;12.38;100.00;100180.72;7386854;19;20011;-77
2022/09/22 05:36:17;;;;;;;2.25;0.93;;;;;;;13.51;100.00;100186.38;7391300;19;20022;-77
2022/09/22 05:38:43;;;;;;;3.42;0.98;;;;;;;13.75;100.00;100182.63;7390979;19;20088;-77
2022/09/22 05:41:09;;;;;;;4.63;1.77;;;;;;;14.15;100.00;100177.00;7388940;19;20021;-77
2022/09/22 05:43:36;;;;;;;4.43;2.10;;;;;;;10.75;100.00;100187.25;7389209;19;20018;-77
2022/09/22 05:46:05;;;;;;;1.67;0.82;;;;;;;14.12;100.00;100183.59;7391105;19;20023;-77
2022/09/22 05:48:31;;;;;;;4.53;2.13;;;;;;;14.08;100.00;100181.00;7386398;19;20056;-77
2022/09/22 05:50:57;;;;;;;1.23;1.20;;;;;;;10.14;100.00;100194.00;7388634;19;20022;-77
2022/09/22 05:53:23;;;;;;;1.88;1.10;;;;;;;11.27;100.00;100183.19;7386657;19;20033;-77
2022/09/22 05:55:49;;;;;;;1.48;1.23;;;;;;;9.73;100.00;100192.56;7391464;19;20025;-77
2022/09/22 05:58:15;;;;;;;4.18;1.00;;;;;;;10.36;100.00;100180.69;7389493;19;20111;-77
2022/09/22 06:00:42;;;;;;;10.27;1.42;;;;;;;12.63;100.00;100168.19;7386929;19;20018;-77
2022/09/22 06:03:08;;;;;;;2.40;1.67;;;;;;;12.93;100.00;100161.31;7387826;19;20017;-77
2022/09/22 06:05:34;;;;;;;3.13;1.40;;;;;;;13.38;100.00;100166.34;7390285;19;20034;-77
2022/09/22 06:08:05;;;;;;;3.08;0.77;;;;;;;11.90;100.00;100157.72;7388500;19;20018;-77
2022/09/22 06:10:33;;;;;;;6.07;1.45;;;;;;;13.88;100.00;100158.59;7385738;19;20086;-77
2022/09/22 06:13:05;;;;;;;2.35;1.05;;;;;;;13.00;100.00;100146.94;7388325;19;20014;-77
2022/09/22 06:15:35;;;;;;;5.13;1.45;;;;;;;14.58;100.00;100163.97;7390826;19;20045;-77
2022/09/22 06:18:06;;;;;;;4.73;1.57;;;;;;;14.84;100.00;100156.31;7388730;19;20473;-77
2022/09/22 06:20:36;;;;;;;4.18;1.13;;;;;;;14.81;100.00;100155.25;7385543;19;20401;-77
2022/09/22 06:23:02;;;;;;;0.68;0.68;;;;;;;10.57;100.00;100160.22;7386486;19;20018;-76
2022/09/22 06:25:29;;;;;;;1.65;1.08;;;;;;;14.01;100.00;100152.66;7390914;19;20019;-77
2022/09/22 06:28:00;;;;;;;1.38;1.15;;;;;;;14.51;100.00;100145.56;7391123;19;20035;-77
2022/09/22 06:30:26;;;;;;;5.93;1.40;;;;;;;14.75;100.00;100153.69;7387584;19;20038;-77
2022/09/22 06:32:54;;;;;;;3.40;1.35;;;;;;;14.26;100.00;100149.88;7388476;19;20022;-77
2022/09/22 06:35:20;;;;;;;4.30;1.95;;;;;;;15.09;100.00;100153.44;7390218;19;20025;-77
2022/09/22 06:37:50;;;;;;;1.58;1.23;;;;;;;15.30;100.00;100147.72;7388200;19;20014;-76
2022/09/22 06:40:16;;;;;;;10.23;2.15;;;;;;;15.39;100.00;100144.72;7382431;19;20011;-77
2022/09/22 06:42:42;;;;;;;2.58;1.80;;;;;;;14.81;100.00;100149.66;7386402;19;20027;-77
2022/09/22 06:45:09;;;;;;;2.95;0.85;;;;;;;13.16;100.00;100152.06;7389357;19;20018;-77
2022/09/22 06:47:35;;;;;;;4.18;1.50;;;;;;;13.46;100.00;100159.09;7386500;19;20119;-77
2022/09/22 06:50:04;;;;;;;4.32;1.92;;;;;;;14.80;100.00;100142.53;7384011;19;20019;-77
2022/09/22 06:52:31;;;;;;;4.25;1.58;;;;;;;15.66;100.00;100144.09;7385772;19;20025;-77
2022/09/22 06:54:59;;;;;;;5.72;2.17;;;;;;;15.60;100.00;100151.72;7389301;19;20031;-77
2022/09/22 06:57:31;;;;;;;3.85;1.67;;;;;;;15.24;100.00;100155.34;7385499;19;20026;-77
2022/09/22 06:59:59;;;;;;;7.10;1.90;;;;;;;15.88;100.00;100150.59;7384779;19;20023;-77
2022/09/22 07:02:27;;;;;;;2.63;1.98;;;;;;;16.30;100.00;100154.56;7386308;19;20350;-78
2022/09/22 07:04:57;;;;;;;6.38;2.33;;;;;;;16.16;100.00;100147.09;7383678;19;20047;-78
2022/09/22 07:07:26;;;;;;;4.13;2.28;;;;;;;16.42;100.00;100145.63;7382522;19;20031;-77
2022/09/22 07:09:53;;;;;;;3.25;1.83;;;;;;;16.79;100.00;100141.84;7386707;19;20022;-78
2022/09/22 07:12:21;;;;;;;3.05;1.85;;;;;;;16.96;100.00;100151.03;7384784;19;20015;-78
2022/09/22 07:14:48;;;;;;;3.63;1.92;;;;;;;17.07;100.00;100148.22;7385754;19;20376;-77
2022/09/22 07:17:17;;;;;;;4.63;2.03;;;;;;;17.08;100.00;100149.78;7384092;19;20428;-78
2022/09/22 07:19:45;;;;;;;6.88;1.85;;;;;;;17.02;100.00;100149.00;7385349;19;20022;-78
2022/09/22 07:22:14;;;;;;;5.40;2.05;;;;;;;17.27;100.00;100156.38;7384319;19;20022;-78
2022/09/22 07:24:41;;;;;;;3.40;1.65;;;;;;;17.63;100.00;100149.66;7384716;19;20015;-78
2022/09/22 07:27:09;;;;;;;7.45;2.17;;;;;;;17.72;100.00;100149.38;7385276;19;20464;-78
2022/09/22 07:29:36;;;;;;;1.83;1.17;;;;;;;17.44;100.00;100154.31;7384837;19;20046;-78
2022/09/22 07:32:02;;;;;;;5.65;1.90;;;;;;;17.82;100.00;100144.97;7384386;19;20022;-78
2022/09/22 07:34:29;;;;;;;4.63;1.80;;;;;;;18.13;100.00;100138.94;7385727;19;20018;-77
2022/09/22 07:36:55;;;;;;;9.75;2.33;;;;;;;18.25;100.00;100150.94;7383787;19;20041;-78
2022/09/22 07:39:23;;;;;;;5.70;1.85;;;;;;;18.37;100.00;100140.34;7388400;19;20018;-78
2022/09/22 07:41:50;;;;;;;9.77;2.35;;;;;;;18.55;100.00;100134.09;7385128;19;20019;-78
2022/09/22 07:47:02;;;;;;;3.22;2.03;;;;;;;18.87;100.00;100143.59;7384989;19;20018;-77
2022/09/22 07:49:28;;;;;;;3.08;1.75;;;;;;;18.41;100.00;100129.56;7385160;19;20019;-78
2022/09/22 07:51:56;;;;;;;3.72;1.95;;;;;;;18.34;100.00;100138.59;7392009;19;20015;-78
2022/09/22 07:54:24;;;;;;;5.55;2.15;;;;;;;18.17;100.00;100136.63;7390497;19;20018;-84
2022/09/22 07:56:54;;;;;;;2.72;1.50;;;;;;;18.39;100.00;100134.94;7390606;19;20031;-81
2022/09/22 07:59:21;;;;;;;9.63;2.42;;;;;;;18.30;100.00;100135.28;7390301;19;20112;-81
2022/09/22 08:01:48;;;;;;;5.55;1.95;;;;;;;18.92;100.00;100134.31;7389224;19;20048;-81
2022/09/22 08:04:17;;;;;;;2.70;0.88;;;;;;;18.98;100.00;100120.91;7392779;19;20032;-81
2022/09/22 08:06:45;;;;;;;6.68;1.17;;;;;;;19.18;100.00;100134.59;7392376;19;20018;-81
2022/09/22 08:09:12;;;;;;;4.38;1.48;;;;;;;19.37;100.00;100124.16;7392919;19;20499;-81
2022/09/22 08:11:39;;;;;;;4.35;1.70;;;;;;;19.53;100.00;100131.66;7392614;19;20010;-82
2022/09/22 08:14:10;;;;;;;4.07;1.05;;;;;;;19.68;100.00;100125.59;7391438;19;20056;-81
2022/09/22 08:16:38;;;;;;;5.65;1.63;;;;;;;19.79;100.00;100121.88;7391326;19;20496;-81
2022/09/22 08:19:11;;;;;;;2.22;1.25;;;;;;;19.87;100.00;100128.44;7392836;19;20019;-85
2022/09/22 08:21:39;;;;;;;4.03;1.27;;;;;;;19.67;100.00;100124.06;7393895;19;20022;-85
2022/09/22 08:24:08;;;;;;;6.50;1.42;;;;;;;19.84;100.00;100118.22;7399360;19;20031;-87
2022/09/22 08:26:36;;;;;;;1.90;0.98;;;;;;;20.03;100.00;100119.00;7398482;19;20014;-87
2022/09/22 08:29:04;;;;;;;3.28;1.42;;;;;;;19.96;100.00;100128.06;7398689;19;20081;-86
2022/09/22 08:31:31;;;;;;;4.85;1.70;;;;;;;20.18;100.00;100117.22;7396718;19;20029;-86
2022/09/22 08:33:57;;;;;;;1.65;0.85;;;;;;;20.45;100.00;100134.34;7395242;19;20014;-85
2022/09/22 08:36:28;;;;;;;6.78;1.65;;;;;;;20.59;100.00;100125.41;7401779;19;20018;-85
2022/09/22 08:38:54;;;;;;;3.13;1.13;;;;;;;20.59;100.00;100122.56;7396904;19;20030;-87
2022/09/22 08:41:43;;;;;;;4.28;1.85;;;;;;;20.47;100.00;100121.19;7394868;19;20023;-85
2022/09/22 08:44:09;;;;;;;5.85;2.22;;;;;;;20.55;100.00;100116.44;7397290;19;20052;-85
2022/09/22 08:47:00;;;;;;;4.78;1.88;;;;;;;20.74;100.00;100117.16;7397083;19;20724;-86
2022/09/22 08:52:37;;;;;;;3.10;1.33;;;;;;;21.72;100.00;100118.69;7398671;19;20491;-86
2022/09/22 08:55:06;;;;;;;6.07;2.20;;;;;;;21.63;100.00;100113.50;7400755;19;21054;-87
2022/09/22 08:58:17;;;;;;;4.18;1.48;;;;;;;21.79;100.00;100123.72;7396446;19;20022;-86
2022/09/22 09:00:51;;;;;;;;;;;;;;;21.65;100.00;100112.94;7397186;19;20010;-89
2022/09/22 09:03:47;;;;;;;5.15;1.65;;;;;;;21.64;100.00;100105.72;7395276;19;19922;-87
2022/09/22 09:06:32;;;;;;;5.28;1.83;;;;;;;21.66;100.00;100103.13;7399007;19;20092;-86
2022/09/22 09:09:24;;;;;;;7.30;2.00;;;;;;;21.74;100.00;100089.81;7396481;19;20014;-83
2022/09/22 09:11:59;;;;;;;8.07;1.85;;;;;;;21.94;100.00;100094.81;7395760;19;20015;-87
2022/09/22 09:14:43;;;;;;;2.53;0.85;;;;;;;22.28;100.00;100095.59;7398872;19;20038;-89
2022/09/22 09:17:28;;;;;;;1.80;1.08;;;;;;;22.56;100.00;100104.22;7396468;19;20014;-89
2022/09/22 09:19:57;;;;;;;14.52;2.88;;;;;;;22.50;100.00;100103.56;7398177;19;20046;-88
2022/09/22 09:22:34;;;;;;;5.15;1.33;;;;;;;22.59;100.00;100103.13;7396378;19;20006;-88
2022/09/22 09:25:18;;;;;;;6.38;1.52;;;;;;;22.67;100.00;100102.44;7400082;19;20015;-89
2022/09/22 09:27:48;;;;;;;4.68;1.25;;;;;;;22.60;100.00;100104.66;7397735;19;20082;-88
2022/09/22 09:30:19;;;;;;;5.70;1.73;;;;;;;22.63;100.00;100097.88;7396397;19;20025;-89
2022/09/22 09:32:51;;;;;;;5.57;1.75;;;;;;;22.72;100.00;100104.41;7398935;19;20062;-88
2022/09/22 09:35:27;;;;;;;10.27;1.85;;;;;;;22.63;100.00;100104.88;7398289;19;20018;-89
2022/09/22 09:37:57;;;;;;;2.80;1.00;;;;;;;22.72;100.00;100105.13;7398061;19;20038;-87
2022/09/22 09:40:24;;;;;;;3.40;1.30;;;;;;;22.79;100.00;100092.31;7395903;19;20010;-89
2022/09/22 09:43:02;;;;;;;4.50;2.03;;;;;;;22.77;100.00;100095.72;7397062;19;20023;-89
2022/09/22 09:45:39;;;;;;;5.25;1.63;;;;;;;22.73;100.00;100094.56;7400361;19;20052;-89
2022/09/22 09:48:27;;;;;;;4.13;1.20;;;;;;;22.89;100.00;100084.84;7398452;19;20017;-88
2022/09/22 09:50:54;;;;;;;5.78;1.48;;;;;;;22.13;100.00;100084.09;7396708;19;20019;-85
2022/09/22 09:53:36;;;;;;;2.30;1.52;;;;;;;22.70;100.00;100073.69;7388778;19;20018;-85
2022/09/22 09:56:21;;;;;;;5.80;1.83;;;;;;;22.33;100.00;100079.75;7396520;19;20015;-88
2022/09/22 10:01:56;;;;;;;2.60;1.60;;;;;;;22.45;100.00;100081.00;7396166;19;20020;-88
2022/09/22 10:04:32;;;;;;;3.85;1.48;;;;;;;21.93;100.00;100073.44;7396908;19;20002;-89
2022/09/22 10:07:29;;;;;;;2.08;1.17;;;;;;;19.07;100.00;100075.41;7397711;19;20006;-87
2022/09/22 10:10:22;;;;;;;2.53;1.63;;;;;;;18.41;100.00;100076.00;7395924;19;20025;-88
2022/09/22 10:12:48;;;;;;;2.70;1.38;;;;;;;21.39;100.00;100074.03;7395632;19;20014;-88
2022/09/22 10:15:25;;;;;;;8.00;1.35;;;;;;;19.77;100.00;100060.22;7392375;19;20077;-87
2022/09/22 10:17:51;;;;;;;2.67;1.42;;;;;;;19.29;100.00;100063.88;7391606;19;20460;-86
2022/09/22 10:20:25;;;;;;;4.10;1.67;;;;;;;20.43;100.00;100052.84;7388005;19;20496;-84
2022/09/22 10:22:52;;;;;;;4.60;1.60;;;;;;;20.71;100.00;100050.31;7385883;19;20025;-86
2022/09/22 10:25:31;;;;;;;6.40;1.30;;;;;;;20.96;100.00;100048.81;7390796;19;20025;-81
2022/09/22 10:28:14;;;;;;;3.05;1.35;;;;;;;20.84;100.00;100044.66;7389572;19;20010;-82
2022/09/22 10:30:42;;;;;;;2.30;0.70;;;;;;;20.97;100.00;100049.56;7384739;19;20027;-82
2022/09/22 10:33:17;;;;;;;5.05;1.45;;;;;;;21.51;100.00;100046.22;7387926;19;20046;-82
2022/09/22 10:36:05;;;;;;;4.80;1.50;;;;;;;22.32;100.00;100033.59;7390790;19;20477;-81
2022/09/22 10:38:40;;;;;;;3.05;1.08;;;;;;;22.61;100.00;100035.19;7388499;19;20018;-81
2022/09/22 10:41:23;;;;;;;2.97;1.25;;;;;;;22.43;100.00;100038.22;7387761;19;20467;-83
2022/09/22 10:43:59;;;;;;;1.33;0.75;;;;;;;22.08;100.00;100030.31;7390240;19;20021;-82
2022/09/22 10:46:33;;;;;;;3.15;0.57;;;;;;;21.95;100.00;100028.28;7390032;19;20014;-82
2022/09/22 10:49:20;;;;;;;1.40;0.88;;;;;;;23.20;100.00;100018.38;7383973;19;20018;-82
2022/09/22 10:52:10;;;;;;;2.38;0.90;;;;;;;23.63;100.00;100021.28;7386073;19;20515;-81
2022/09/22 10:54:49;;;;;;;;;;;;;;;23.86;100.00;100010.78;7385998;19;20485;-82
2022/09/22 10:57:49;;;;;;;1.48;0.70;;;;;;;24.00;100.00;100017.06;7386850;19;20390;-82
2022/09/22 11:00:19;;;;;;;4.28;1.02;;;;;;;24.05;100.00;100016.16;7383720;19;20035;-82
2022/09/22 11:03:23;;;;;;;4.13;1.33;;;;;;;24.14;100.00;100017.69;7382284;19;20504;-82
2022/09/22 11:12:50;;;;;;;1.02;0.75;;;;;;;23.76;100.00;100018.31;7385768;19;20019;-81
2022/09/22 11:15:35;;;;;;;1.85;1.02;;;;;;;24.29;100.00;100014.88;7388086;19;20498;-81
2022/09/22 11:18:01;;;;;;;2.63;1.45;;;;;;;24.50;100.00;100021.16;7386257;19;20018;-81
2022/09/22 11:20:40;;;;;;;2.15;1.15;;;;;;;24.37;100.00;100012.78;7382909;19;20018;-81
2022/09/22 11:23:34;;;;;;;3.08;0.73;;;;;;;24.04;100.00;100015.38;7385676;19;20299;-82
2022/09/22 11:26:20;;;;;;;3.13;0.88;;;;;;;23.94;100.00;100022.94;7390430;19;20030;-84
2022/09/22 11:29:08;;;;;;;4.20;1.58;;;;;;;24.30;100.00;100013.56;7397397;19;20018;-79
2022/09/22 11:31:53;;;;;;;2.05;0.93;;;;;;;24.27;100.00;100014.69;7393140;19;20060;-80
2022/09/22 11:34:48;;;;;;;3.40;0.98;;;;;;;24.36;100.00;100022.66;7395821;19;20504;-80
2022/09/22 11:38:08;;;;;;;2.22;1.00;;;;;;;24.35;100.00;100026.81;7388939;19;20398;-81
2022/09/22 11:40:50;;;;;;;2.50;0.20;;;;;;;24.20;100.00;100029.66;7386711;19;20035;-82
2022/09/22 11:43:30;;;;;;;2.65;0.55;;;;;;;23.95;100.00;100024.44;7390092;19;20010;-81
2022/09/22 11:46:11;;;;;;;6.82;1.60;;;;;;;23.90;100.00;100028.22;7397028;19;20018;-86
2022/09/22 11:48:54;;;;;;;1.17;0.77;;;;;;;23.67;100.00;100030.22;7393767;19;20023;-84
2022/09/22 11:51:35;;;;;;;1.17;0.65;;;;;;;23.59;100.00;100037.19;7391474;19;20025;-81
2022/09/22 11:54:04;;;;;;;2.20;0.70;;;;;;;23.30;100.00;100027.94;7398050;19;20102;-85
2022/09/22 11:56:48;;;;;;;1.65;0.55;;;;;;;23.18;100.00;100032.41;7398214;19;20010;-84